Soaring Guidance
Issued by NWS Reno, NV

Home | Current Version | Previous Version | Text Only | Print | Product List | Glossary On
Versions: 1 2 3 4 5 6 7 8 9 10 11 12 13 14 15 16
000
UXUS97 KREV 161534
SRGREV

SOARING FORECAST
NATIONAL WEATHER SERVICE - RENO NV
700 AM PST MON JAN 16 2017

THIS SOARING FORECAST IS FOR THE EASTERN SIERRA AND WESTERN NEVADA
WITH SPECIFIC INDICES FOR THE GREATER RENO AREA.

THIS FORECAST IS PREPARED DAILY BY 700 AM AND IS NOT UPDATED.

FOR CURRENT FLIGHT CONDITIONS...FORECASTS...AND ADVISORIES...ACCESS
YOUR LOCAL BRIEFING OUTLET OR FLIGHT SERVICE STATION.

*******************************************************************
FORECASTED LOCAL INDICES FOR RENO:        TODAY     YESTERDAY
FORECASTED MAX TEMP AT RENO (DEG F).....     35          31
FORECASTED TRIGGER TEMPERATURE (DEG F)..     51          51
   EXCEEDED YESTERDAY BY
FORECASTED MAXIMUM ALTITUDE (FT MSL)....   7200        7300
FORECASTED SOARING INDEX (FPM)..........    336         279
FORECASTED K-INDEX.........VALID 18Z....    -23         -25
FORECASTED K-INDEX.........VALID 00Z....    -15         -18
FORECASTED LIFTED INDEX....VALID 18Z....     14          11
FORECASTED LIFTED INDEX....VALID 00Z....     11           9

AFTERNOON WINDS ALOFT FORECAST
MSL (FT) WIND/TEMP
9000  0413/+03
10000 0216/+01
12000 0221/-01
14000 0122/-05
16000 0123/-09
18000  127/-14
24000 0234/-27
30000 0136/-44
34000 0238/-55
39000 0141/-65

SLIDE MOUNTAIN DATA:
     DATE       TIME     TEMP  DEWPT   RH         WIND (MPH)
                        (F)   (F)           | DIR  SPEED GUST
2017-01-16    05:50      21     0     23    | 314    0    1
2017-01-16    05:30      21     0     24    | 148    0    1
2017-01-16    05:20      20     4     35    | 263    0    1
2017-01-16    05:00      20     4     34    | 337    0    2

RENO TAF FORECAST:
KRNO 161129Z 1612/1712 19006KT P6SM OVC015
     FM170400 VRB03KT P6SM BKN015

CARSON CITY TAF FORECAST:
KCXP 161434Z 1615/1712 VRB04KT P6SM OVC010
     FM161900 08008KT P6SM BKN012
     FM170400 VRB03KT P6SM BKN013

OUTLOOK FOR THE RENO-CARSON CITY-MINDEN AREA:
.TUESDAY...MOSTLY CLOUDY. HIGHS 38 TO 43. LIGHT WINDS BECOMING
SOUTH AROUND 10 MPH IN THE AFTERNOON.

SUNRISE AND SUNSET
JANUARY 16 2017.......SUNRISE   717 AM PST   SUNSET   501 PM PST
JANUARY 17 2017.......SUNRISE   717 AM PST   SUNSET   502 PM PST


USA.gov is the U.S. government's official web portal to all federal, state and local government web resources and services.